createdAt,value
2023-01-31T00:00:19.703Z,99389.71
2023-01-31T00:04:05.285Z,99408.13
2023-01-31T00:07:35.009Z,99414.73
2023-01-31T00:11:03.833Z,99419.92
2023-01-31T00:14:32.216Z,99423.19
2023-01-31T00:18:00.027Z,99424.26
2023-01-31T00:21:31.208Z,99428.77
2023-01-31T00:24:59.311Z,99430.07
2023-01-31T00:28:29.612Z,99440.77
2023-01-31T00:31:58.517Z,99441.03
2023-01-31T00:35:25.607Z,99446.78
2023-01-31T00:38:59.472Z,99448.92
2023-01-31T00:42:29.774Z,99450.30
2023-01-31T00:46:00.722Z,99459.00
2023-01-31T00:49:28.009Z,99470.90
2023-01-31T00:52:57.368Z,99465.22
2023-01-31T00:56:27.287Z,99469.80
2023-01-31T00:59:54.256Z,99482.61
2023-01-31T01:03:22.165Z,99488.66
2023-01-31T01:06:51.264Z,99494.36
2023-01-31T01:10:18.634Z,99493.47
2023-01-31T01:13:46.811Z,99492.02
2023-01-31T01:17:13.500Z,99501.08
2023-01-31T01:20:41.179Z,99503.59
2023-01-31T01:24:15.608Z,99508.45
2023-01-31T01:27:45.451Z,99513.38
2023-01-31T01:31:17.912Z,99519.05
2023-01-31T01:34:45.151Z,99520.33
2023-01-31T01:38:15.299Z,99527.02
2023-01-31T01:41:42.741Z,99529.49
2023-01-31T01:45:18.834Z,99544.28
2023-01-31T01:48:50.229Z,99541.84
2023-01-31T01:52:19.692Z,99540.09
2023-01-31T01:55:50.908Z,99548.44
2023-01-31T01:59:21.984Z,99551.41
2023-01-31T02:02:50.420Z,99555.52
2023-01-31T02:06:17.278Z,99560.06
2023-01-31T02:09:50.331Z,99561.36
2023-01-31T02:13:18.980Z,99566.54
2023-01-31T02:16:45.650Z,99569.83
2023-01-31T02:20:40.276Z,99571.34
2023-01-31T02:24:43.394Z,99579.38
2023-01-31T02:28:43.092Z,99589.45
2023-01-31T02:32:37.092Z,99593.48
2023-01-31T02:36:16.886Z,99598.17
2023-01-31T02:39:51.818Z,99597.21
2023-01-31T02:43:24.872Z,99598.19
2023-01-31T02:46:59.401Z,99606.94
2023-01-31T02:50:32.444Z,99610.23
2023-01-31T02:54:07.920Z,99619.98
2023-01-31T02:57:35.435Z,99626.98
2023-01-31T03:01:07.104Z,99632.48
2023-01-31T03:04:37.067Z,99638.81
2023-01-31T03:08:08.684Z,99639.75
2023-01-31T03:11:47.720Z,99647.50
2023-01-31T03:15:52.142Z,99647.17
2023-01-31T03:19:23.306Z,99656.45
2023-01-31T03:22:58.596Z,99663.73
2023-01-31T03:26:27.655Z,99673.83
2023-01-31T03:29:59.728Z,99677.83
2023-01-31T03:33:31.317Z,99691.17
2023-01-31T03:37:06.389Z,99696.95
2023-01-31T03:40:53.286Z,99696.95
2023-01-31T03:44:27.157Z,99703.05
2023-01-31T03:47:59.568Z,99710.82
2023-01-31T03:51:32.476Z,99711.21
2023-01-31T03:55:07.198Z,99708.55
2023-01-31T03:58:40.107Z,99711.41
2023-01-31T04:02:11.868Z,99710.21
2023-01-31T04:05:41.693Z,99718.05
2023-01-31T04:09:09.903Z,99724.73
2023-01-31T04:12:39.985Z,99725.36
2023-01-31T04:16:07.592Z,99731.65
2023-01-31T04:19:41.885Z,99736.34
2023-01-31T04:23:08.986Z,99739.64
2023-01-31T04:26:35.809Z,99748.41
2023-01-31T04:30:03.264Z,99759.89
2023-01-31T04:33:31.083Z,99764.43
2023-01-31T04:36:57.954Z,99770.46
2023-01-31T04:40:24.928Z,99776.06
2023-01-31T04:43:51.883Z,99778.30
2023-01-31T04:47:19.575Z,99778.48
2023-01-31T04:50:46.485Z,99785.38
2023-01-31T04:54:13.414Z,99790.65
2023-01-31T04:57:40.714Z,99796.29
2023-01-31T05:01:07.495Z,99802.98
2023-01-31T05:04:34.255Z,99812.68
2023-01-31T05:08:01.051Z,99822.25
2023-01-31T05:11:28.598Z,99827.30
2023-01-31T05:14:55.742Z,99835.05
2023-01-31T05:18:23.443Z,99836.08
2023-01-31T05:21:59.306Z,99834.34
2023-01-31T05:25:27.091Z,99839.05
2023-01-31T05:28:53.875Z,99847.59
2023-01-31T05:32:20.782Z,99848.59
2023-01-31T05:35:47.470Z,99856.65
2023-01-31T05:39:14.933Z,99863.13
2023-01-31T05:42:42.089Z,99861.88
2023-01-31T05:46:09.802Z,99869.80
2023-01-31T05:49:36.913Z,99869.70
2023-01-31T05:53:04.366Z,99871.33
2023-01-31T05:56:30.990Z,99874.50
2023-01-31T05:59:58.580Z,99880.05
2023-01-31T06:03:25.950Z,99886.42
2023-01-31T06:06:52.366Z,99888.86
2023-01-31T06:10:20.979Z,99897.31
2023-01-31T06:13:49.558Z,99898.38
2023-01-31T06:17:16.717Z,99902.80
2023-01-31T06:20:43.302Z,99909.58
2023-01-31T06:24:10.813Z,99911.68
2023-01-31T06:27:38.639Z,99917.19
2023-01-31T06:31:11.440Z,99914.48
2023-01-31T06:34:38.203Z,99922.30
2023-01-31T06:38:05.380Z,99934.40
2023-01-31T06:41:34.226Z,99940.73
2023-01-31T06:45:02.588Z,99944.73
2023-01-31T06:48:29.269Z,99945.81
2023-01-31T06:51:56.803Z,99949.77
2023-01-31T06:55:24.091Z,99957.14
2023-01-31T06:58:50.966Z,99964.58
2023-01-31T07:02:17.498Z,99968.15
2023-01-31T07:05:46.235Z,99969.36
2023-01-31T07:09:13.952Z,99978.05
2023-01-31T07:12:40.863Z,99979.39
2023-01-31T07:16:09.312Z,99978.84
2023-01-31T07:19:36.226Z,99991.14
2023-01-31T07:23:03.282Z,99991.91
2023-01-31T07:26:30.130Z,99993.05
2023-01-31T07:29:57.630Z,99993.98
2023-01-31T07:33:24.244Z,99996.66
2023-01-31T07:36:50.850Z,100001.35
2023-01-31T07:40:19.423Z,100000.09
2023-01-31T07:43:45.782Z,99995.80
2023-01-31T07:47:12.731Z,99998.16
2023-01-31T07:50:39.717Z,99999.78
2023-01-31T07:54:06.299Z,99999.55
2023-01-31T07:57:35.378Z,100009.59
2023-01-31T08:01:19.995Z,100010.16
2023-01-31T08:04:47.065Z,100019.28
2023-01-31T08:08:14.040Z,100024.83
2023-01-31T08:11:41.382Z,100027.27
2023-01-31T08:15:13.066Z,100032.27
2023-01-31T08:18:40.235Z,100035.53
2023-01-31T08:22:08.036Z,100035.55
2023-01-31T08:25:34.987Z,100039.25
2023-01-31T08:29:02.315Z,100044.45
2023-01-31T08:32:29.349Z,100048.45
2023-01-31T08:35:56.235Z,100047.80
2023-01-31T08:39:23.375Z,100054.30
2023-01-31T08:42:58.370Z,100052.88
2023-01-31T08:46:26.028Z,100053.89
2023-01-31T08:49:52.838Z,100053.56
2023-01-31T08:53:19.410Z,100052.08
2023-01-31T08:56:46.135Z,100048.39
2023-01-31T09:00:15.854Z,100045.54
2023-01-31T09:03:45.118Z,100053.00
2023-01-31T09:07:12.655Z,100060.47
2023-01-31T09:10:39.747Z,100059.67
2023-01-31T09:14:07.312Z,100068.76
2023-01-31T09:17:34.174Z,100065.49
2023-01-31T09:21:07.116Z,100067.80
2023-01-31T09:24:33.865Z,100077.75
2023-01-31T09:28:01.785Z,100082.85
2023-01-31T09:31:29.002Z,100086.64
2023-01-31T09:34:55.434Z,100087.05
2023-01-31T09:38:22.748Z,100089.02
2023-01-31T09:41:53.881Z,100090.42
2023-01-31T09:45:31.192Z,100087.48
2023-01-31T09:49:01.273Z,100086.65
2023-01-31T09:52:30.841Z,100082.85
2023-01-31T09:56:09.148Z,100086.48
2023-01-31T09:59:49.200Z,100090.15
2023-01-31T10:03:33.939Z,100091.89
2023-01-31T10:07:07.073Z,100088.71
2023-01-31T10:10:37.158Z,100090.00
2023-01-31T10:14:15.267Z,100082.80
2023-01-31T10:17:47.051Z,100088.11
2023-01-31T10:21:18.362Z,100090.40
2023-01-31T10:24:51.024Z,100092.03
2023-01-31T10:28:23.186Z,100088.98
2023-01-31T10:31:56.774Z,100086.60
2023-01-31T10:35:31.908Z,100083.81
2023-01-31T10:39:06.592Z,100082.36
2023-01-31T10:42:36.386Z,100078.23
2023-01-31T10:46:10.009Z,100074.65
2023-01-31T10:49:37.066Z,100063.33
2023-01-31T10:53:17.200Z,100066.04
2023-01-31T10:56:45.995Z,100064.89
2023-01-31T11:00:23.914Z,100065.27
2023-01-31T11:03:53.679Z,100065.52
2023-01-31T11:07:22.278Z,100068.48
2023-01-31T11:10:57.364Z,100074.66
2023-01-31T11:14:24.283Z,100069.45
2023-01-31T11:17:51.971Z,100067.67
2023-01-31T11:21:26.725Z,100072.61
2023-01-31T11:24:54.846Z,100064.90
2023-01-31T11:28:26.146Z,100061.65
2023-01-31T11:31:54.238Z,100055.98
2023-01-31T11:35:31.623Z,100051.67
2023-01-31T11:38:58.951Z,100056.47
2023-01-31T11:42:26.150Z,100053.55
2023-01-31T11:46:03.837Z,100055.29
2023-01-31T11:49:39.929Z,100056.52
2023-01-31T11:53:19.095Z,100050.02
2023-01-31T11:56:46.882Z,100050.80
2023-01-31T12:00:25.066Z,100034.13
2023-01-31T12:04:03.213Z,100030.11
2023-01-31T12:07:42.124Z,100021.63
2023-01-31T12:11:32.946Z,100012.42
2023-01-31T12:15:04.287Z,100006.73
2023-01-31T12:18:58.344Z,99997.90
2023-01-31T12:22:27.585Z,99999.05
2023-01-31T12:26:10.014Z,99994.98
2023-01-31T12:30:01.853Z,99987.56
2023-01-31T12:33:40.459Z,99979.80
2023-01-31T12:37:25.592Z,99970.70
2023-01-31T12:41:04.222Z,99969.35
2023-01-31T12:44:46.809Z,99963.63
2023-01-31T12:48:40.669Z,99962.15
2023-01-31T12:52:16.342Z,99963.77
2023-01-31T12:55:52.398Z,99962.54
2023-01-31T12:59:36.918Z,99956.98
2023-01-31T13:03:34.808Z,99962.52
2023-01-31T13:07:06.506Z,99955.83
2023-01-31T13:10:40.906Z,99948.70
2023-01-31T13:14:13.103Z,99936.41
2023-01-31T13:17:43.437Z,99936.27
2023-01-31T13:21:14.793Z,99927.69
2023-01-31T13:24:48.706Z,99922.91
2023-01-31T13:28:23.101Z,99910.78
2023-01-31T13:31:56.940Z,99912.62
2023-01-31T13:35:28.073Z,99906.55
2023-01-31T13:38:58.283Z,99902.14
2023-01-31T13:42:28.608Z,99896.28
2023-01-31T13:46:02.849Z,99902.52
2023-01-31T13:49:34.706Z,99893.23
2023-01-31T13:53:07.080Z,99889.94
2023-01-31T13:56:41.909Z,99883.63
2023-01-31T14:00:25.314Z,99882.77
2023-01-31T14:04:27.260Z,99878.52
2023-01-31T14:08:32.390Z,99871.52
2023-01-31T14:12:03.208Z,99865.27
2023-01-31T14:15:54.118Z,99855.54
2023-01-31T14:19:55.469Z,99855.29
2023-01-31T14:23:48.289Z,99852.38
2023-01-31T14:27:24.418Z,99850.86
2023-01-31T14:30:54.778Z,99847.56
2023-01-31T14:34:32.219Z,99849.45
2023-01-31T14:38:15.021Z,99845.74
2023-01-31T14:42:05.471Z,99841.11
2023-01-31T14:45:51.070Z,99835.30
2023-01-31T14:49:51.818Z,99828.33
2023-01-31T14:53:56.966Z,99826.19
2023-01-31T14:57:30.068Z,99830.92
2023-01-31T15:01:01.120Z,99826.14
2023-01-31T15:04:29.567Z,99819.94
2023-01-31T15:08:24.988Z,99819.94
2023-01-31T15:11:55.985Z,99816.52
2023-01-31T15:15:34.936Z,99818.13
2023-01-31T15:19:09.653Z,99823.43
2023-01-31T15:22:42.329Z,99824.30
2023-01-31T15:26:11.347Z,99824.63
2023-01-31T15:29:51.659Z,99818.34
2023-01-31T15:33:23.865Z,99817.64
2023-01-31T15:37:02.971Z,99810.81
2023-01-31T15:40:37.189Z,99808.48
2023-01-31T15:44:25.577Z,99798.96
2023-01-31T15:48:01.131Z,99791.50
2023-01-31T15:51:29.357Z,99787.83
2023-01-31T15:54:59.073Z,99778.11
2023-01-31T15:58:30.517Z,99770.36
2023-01-31T16:02:02.933Z,99765.48
2023-01-31T16:05:34.442Z,99762.92
2023-01-31T16:09:04.354Z,99759.31
2023-01-31T16:12:33.581Z,99758.53
2023-01-31T16:16:00.664Z,99755.75
2023-01-31T16:19:33.874Z,99749.06
2023-01-31T16:23:00.790Z,99735.96
2023-01-31T16:26:33.304Z,99728.72
2023-01-31T16:30:01.929Z,99722.36
2023-01-31T16:33:29.329Z,99717.28
2023-01-31T16:37:00.309Z,99711.18
2023-01-31T16:40:31.950Z,99700.67
2023-01-31T16:44:01.763Z,99691.98
2023-01-31T16:47:48.120Z,99688.88
2023-01-31T16:51:44.096Z,99682.35
2023-01-31T16:55:18.443Z,99676.73
2023-01-31T16:58:51.578Z,99666.39
2023-01-31T17:02:26.226Z,99656.02
2023-01-31T17:05:53.111Z,99646.75
2023-01-31T17:09:24.003Z,99647.04
2023-01-31T17:12:52.378Z,99642.55
2023-01-31T17:16:25.329Z,99632.45
2023-01-31T17:19:52.778Z,99629.38
2023-01-31T17:23:20.824Z,99618.33
2023-01-31T17:26:49.759Z,99600.59
2023-01-31T17:30:20.397Z,99586.78
2023-01-31T17:33:47.246Z,99572.17
2023-01-31T17:37:18.070Z,99562.11
2023-01-31T17:40:49.333Z,99549.71
2023-01-31T17:44:17.833Z,99541.86
2023-01-31T17:47:44.833Z,99537.53
2023-01-31T17:51:15.095Z,99534.55
2023-01-31T17:54:42.208Z,99521.98
2023-01-31T17:58:12.943Z,99521.23
2023-01-31T18:01:39.396Z,99504.86
2023-01-31T18:05:07.406Z,99491.27
2023-01-31T18:08:35.462Z,99483.96
2023-01-31T18:12:05.804Z,99469.82
2023-01-31T18:15:34.145Z,99455.40
2023-01-31T18:19:01.623Z,99455.91
2023-01-31T18:22:29.736Z,99453.44
2023-01-31T18:25:56.370Z,99444.58
2023-01-31T18:29:26.527Z,99436.17
2023-01-31T18:32:53.794Z,99442.38
2023-01-31T18:36:23.353Z,99431.89
2023-01-31T18:39:53.957Z,99414.84
2023-01-31T18:43:21.325Z,99405.05
2023-01-31T18:46:49.241Z,99392.63
2023-01-31T18:50:16.783Z,99386.66
2023-01-31T18:53:45.575Z,99380.47
2023-01-31T18:57:12.590Z,99374.31
2023-01-31T19:00:40.313Z,99365.97
2023-01-31T19:04:08.010Z,99364.65
2023-01-31T19:07:34.980Z,99361.41
2023-01-31T19:11:08.676Z,99360.82
2023-01-31T19:14:35.883Z,99352.33
2023-01-31T19:18:02.663Z,99342.02
2023-01-31T19:21:31.460Z,99341.91
2023-01-31T19:24:58.098Z,99340.10
2023-01-31T19:28:25.915Z,99336.30
2023-01-31T19:31:57.120Z,99329.52
2023-01-31T19:35:24.631Z,99319.00
2023-01-31T19:38:52.500Z,99318.88
2023-01-31T19:42:25.526Z,99319.60
2023-01-31T19:45:53.574Z,99309.84
2023-01-31T19:49:24.962Z,99310.88
2023-01-31T19:52:55.739Z,99303.88
2023-01-31T19:56:24.422Z,99294.89
2023-01-31T19:59:54.046Z,99289.77
2023-01-31T20:03:20.885Z,99286.42
2023-01-31T20:06:49.706Z,99274.20
2023-01-31T20:10:21.674Z,99266.50
2023-01-31T20:13:52.511Z,99264.08
2023-01-31T20:17:20.241Z,99262.44
2023-01-31T20:20:49.204Z,99260.73
2023-01-31T20:24:16.567Z,99250.98
2023-01-31T20:27:46.934Z,99244.58
2023-01-31T20:31:16.077Z,99237.83
2023-01-31T20:34:44.029Z,99236.34
2023-01-31T20:38:12.578Z,99245.20
2023-01-31T20:41:42.642Z,99239.45
2023-01-31T20:45:12.727Z,99232.60
2023-01-31T20:48:40.532Z,99230.54
2023-01-31T20:52:10.673Z,99226.01
2023-01-31T20:55:39.832Z,99218.09
2023-01-31T20:59:08.827Z,99219.62
2023-01-31T21:02:37.557Z,99216.33
2023-01-31T21:06:06.813Z,99217.22
2023-01-31T21:09:33.840Z,99215.77
2023-01-31T21:13:05.220Z,99213.12
2023-01-31T21:16:35.983Z,99218.89
2023-01-31T21:20:02.514Z,99235.71
2023-01-31T21:23:29.641Z,99314.70
2023-01-31T21:26:56.535Z,99338.50
2023-01-31T21:30:24.024Z,99302.69
2023-01-31T21:33:57.619Z,99291.27
2023-01-31T21:37:24.668Z,99294.27
2023-01-31T21:41:13.890Z,99277.57
2023-01-31T21:44:41.158Z,99281.58
2023-01-31T21:48:29.634Z,99273.02
2023-01-31T21:51:57.738Z,99268.41
2023-01-31T21:55:25.096Z,99263.08
2023-01-31T21:58:55.580Z,99259.34
2023-01-31T22:02:23.250Z,99255.58
2023-01-31T22:05:50.497Z,99254.52
2023-01-31T22:09:19.191Z,99255.35
2023-01-31T22:12:52.897Z,99254.12
2023-01-31T22:16:25.762Z,99252.73
2023-01-31T22:19:59.488Z,99258.82
2023-01-31T22:23:33.742Z,99253.44
2023-01-31T22:27:04.912Z,99257.30
2023-01-31T22:30:33.899Z,99254.67
2023-01-31T22:34:04.144Z,99258.69
2023-01-31T22:37:31.400Z,99254.48
2023-01-31T22:41:04.164Z,99249.39
2023-01-31T22:44:30.903Z,99243.42
2023-01-31T22:47:59.693Z,99249.13
2023-01-31T22:51:28.964Z,99253.13
2023-01-31T22:54:56.324Z,99250.11
2023-01-31T22:58:24.449Z,99246.46
2023-01-31T23:01:51.327Z,99248.02
2023-01-31T23:05:18.852Z,99256.20
2023-01-31T23:08:46.750Z,99251.52
2023-01-31T23:12:13.795Z,99252.58
2023-01-31T23:15:41.691Z,99250.87
2023-01-31T23:19:08.650Z,99253.03
2023-01-31T23:22:35.300Z,99246.90
2023-01-31T23:26:02.561Z,99248.61
2023-01-31T23:29:29.865Z,99248.08
2023-01-31T23:32:56.759Z,99249.57
2023-01-31T23:36:23.705Z,99243.36
2023-01-31T23:39:50.783Z,99245.78
2023-01-31T23:43:17.845Z,99233.67
2023-01-31T23:46:44.364Z,99226.41
2023-01-31T23:50:13.384Z,99229.60
2023-01-31T23:53:40.744Z,99232.78
2023-01-31T23:57:07.430Z,99237.74
